Time;durP1;ratioP1;P1;durP2;ratioP2;P2;SDS_P1;SDS_P2;PMS_P1;PMS_P2;Temp;Humidity;BMP_temperature;BMP_pressure;BME280_temperature;BME280_humidity;BME280_pressure;Samples;Min_cycle;Max_cycle;Signal;HPM_P1;HPM_P2
2022/03/16 00:00:12;;;;;;;8.05;5.03;;;;;;;-5.72;57.46;101865.78;5095252;28;20133;-78
2022/03/16 00:02:48;;;;;;;9.98;5.20;;;;;;;-5.63;57.80;101884.53;5095288;28;20056;-79
2022/03/16 00:05:16;;;;;;;8.75;4.82;;;;;;;-5.64;57.14;101900.53;5095285;28;20047;-79
2022/03/16 00:07:43;;;;;;;10.15;5.10;;;;;;;-5.66;57.63;101893.50;5095575;28;20052;-80
2022/03/16 00:10:11;;;;;;;12.55;5.00;;;;;;;-5.81;57.63;101859.75;5095894;28;20055;-79
2022/03/16 00:12:40;;;;;;;11.55;5.22;;;;;;;-5.70;58.23;101888.81;5094083;28;20063;-79
2022/03/16 00:15:08;;;;;;;9.98;5.38;;;;;;;-5.74;58.16;101890.19;5093425;28;20052;-80
2022/03/16 00:17:34;;;;;;;9.35;5.15;;;;;;;-5.72;57.99;101893.78;5094487;28;20579;-81
2022/03/16 00:20:03;;;;;;;11.07;5.05;;;;;;;-5.72;58.26;101903.06;5095189;28;20048;-81
2022/03/16 00:22:29;;;;;;;9.20;5.03;;;;;;;-5.75;58.04;101893.47;5094404;28;20064;-80
2022/03/16 00:24:56;;;;;;;11.07;5.35;;;;;;;-5.98;57.96;101871.72;5094833;28;20133;-79
2022/03/16 00:27:23;;;;;;;9.60;5.07;;;;;;;-5.86;58.04;101902.56;5094765;28;20429;-81
2022/03/16 00:29:50;;;;;;;9.18;5.05;;;;;;;-5.82;58.26;101907.22;5093437;28;20143;-82
2022/03/16 00:32:17;;;;;;;10.30;5.63;;;;;;;-5.82;58.35;101914.84;5094468;28;20060;-78
2022/03/16 00:34:44;;;;;;;13.68;5.05;;;;;;;-5.93;57.96;101874.69;5093724;28;20098;-80
2022/03/16 00:37:12;;;;;;;8.57;4.35;;;;;;;-5.85;58.09;101899.28;5093264;28;20551;-79
2022/03/16 00:39:39;;;;;;;8.75;5.18;;;;;;;-5.90;58.05;101892.81;5094847;28;20055;-79
2022/03/16 00:42:06;;;;;;;7.38;4.50;;;;;;;-5.91;58.29;101895.22;5094932;28;20060;-78
2022/03/16 00:44:35;;;;;;;9.90;4.60;;;;;;;-5.89;58.34;101897.19;5094295;28;20138;-80
2022/03/16 00:47:05;;;;;;;9.10;5.15;;;;;;;-6.13;58.57;101862.53;5094168;28;20052;-80
2022/03/16 00:49:32;;;;;;;10.98;5.75;;;;;;;-5.92;58.45;101901.03;5094624;28;20083;-80
2022/03/16 00:52:00;;;;;;;7.68;4.93;;;;;;;-6.07;58.16;101873.31;5094393;28;20060;-79
2022/03/16 00:54:30;;;;;;;11.70;4.88;;;;;;;-5.93;58.95;101901.81;5095531;28;20064;-80
2022/03/16 00:57:01;;;;;;;8.70;4.47;;;;;;;-5.93;58.53;101915.44;5092925;28;20048;-81
2022/03/16 00:59:27;;;;;;;6.70;4.35;;;;;;;-5.93;59.03;101915.44;5093734;28;20051;-82
2022/03/16 01:01:54;;;;;;;8.57;4.88;;;;;;;-6.03;58.64;101890.69;5092827;28;20142;-82
2022/03/16 01:04:22;;;;;;;7.85;4.45;;;;;;;-6.02;58.59;101917.06;5098398;28;20071;-81
2022/03/16 01:06:49;;;;;;;8.63;5.35;;;;;;;-6.02;59.11;101894.19;5102605;28;20111;-80
2022/03/16 01:09:18;;;;;;;14.37;4.80;;;;;;;-6.17;58.74;101888.41;5102563;28;20082;-79
2022/03/16 01:11:45;;;;;;;8.40;4.97;;;;;;;-6.03;58.61;101911.06;5102406;28;20289;-79
2022/03/16 01:14:12;;;;;;;6.97;4.25;;;;;;;-6.27;58.82;101885.66;5096891;28;20048;-79
2022/03/16 01:16:40;;;;;;;8.48;4.78;;;;;;;-6.13;58.80;101920.13;5094140;28;20060;-81
2022/03/16 01:19:07;;;;;;;11.13;4.72;;;;;;;-6.15;58.82;101908.91;5097939;28;20062;-78
2022/03/16 01:21:35;;;;;;;8.65;5.03;;;;;;;-6.16;59.02;101902.03;5101477;28;20109;-80
2022/03/16 01:24:03;;;;;;;9.10;5.28;;;;;;;-6.15;59.10;101898.72;5093662;28;20052;-79
2022/03/16 01:26:30;;;;;;;8.75;5.25;;;;;;;-6.29;59.17;101876.97;5093244;28;20144;-81
2022/03/16 01:28:57;;;;;;;11.68;4.90;;;;;;;-6.64;59.16;101823.41;5093083;28;20064;-79
2022/03/16 01:31:24;;;;;;;7.90;4.38;;;;;;;-6.27;59.74;101899.28;5074585;28;20056;-78
2022/03/16 01:33:52;;;;;;;11.52;4.70;;;;;;;-6.26;59.34;101917.97;5093315;28;20056;-80
2022/03/16 01:36:19;;;;;;;7.90;4.60;;;;;;;-6.52;59.29;101861.88;5093196;28;20471;-78
2022/03/16 01:38:46;;;;;;;7.60;4.57;;;;;;;-6.36;59.68;101910.16;5076101;28;20052;-81
2022/03/16 01:41:14;;;;;;;8.35;4.20;;;;;;;-6.62;59.59;101857.50;5094223;28;20497;-80
2022/03/16 01:43:41;;;;;;;8.45;4.82;;;;;;;-6.37;59.93;101904.16;5107121;28;20082;-79
2022/03/16 01:46:08;;;;;;;11.50;5.32;;;;;;;-6.51;59.72;101897.66;5117292;28;20035;-78
2022/03/16 01:48:37;;;;;;;9.90;5.40;;;;;;;-6.45;59.45;101910.13;5104065;28;20141;-80
2022/03/16 01:51:04;;;;;;;10.30;5.50;;;;;;;-7.14;59.78;101794.53;5092225;28;20465;-78
2022/03/16 01:53:31;;;;;;;13.15;6.05;;;;;;;-6.52;60.17;101918.72;5093141;28;20377;-79
2022/03/16 01:55:59;;;;;;;15.48;6.55;;;;;;;-6.92;59.62;101868.81;5093356;28;20071;-81
2022/03/16 01:58:26;;;;;;;12.07;6.65;;;;;;;-6.67;60.37;101920.56;5094505;28;20416;-81
2022/03/16 02:00:59;;;;;;;10.65;6.28;;;;;;;-6.94;60.12;101870.31;5093479;28;20373;-80
2022/03/16 02:03:27;;;;;;;13.23;6.60;;;;;;;-6.73;60.74;101914.88;5074607;28;20052;-80
2022/03/16 02:05:54;;;;;;;11.52;6.15;;;;;;;-6.71;60.32;101922.63;5091686;28;20079;-79
2022/03/16 02:08:22;;;;;;;9.52;5.80;;;;;;;-6.76;60.68;101921.25;5090524;28;20084;-78
2022/03/16 02:10:48;;;;;;;10.07;5.53;;;;;;;-6.88;60.86;101911.59;5092467;28;20052;-81
2022/03/16 02:13:15;;;;;;;9.45;5.22;;;;;;;-6.83;61.09;101912.09;5092753;28;20052;-79
2022/03/16 02:15:42;;;;;;;13.18;6.32;;;;;;;-6.80;60.77;101926.03;5092895;28;20493;-78
2022/03/16 02:18:09;;;;;;;12.60;6.15;;;;;;;-6.82;61.12;101904.63;5092779;28;20056;-80
2022/03/16 02:20:37;;;;;;;11.02;5.60;;;;;;;-6.70;61.03;101904.13;5092308;28;20074;-79
2022/03/16 02:23:06;;;;;;;11.18;5.63;;;;;;;-6.63;60.94;101917.59;5092492;28;20151;-78
2022/03/16 02:25:47;;;;;;;11.75;5.63;;;;;;;-6.73;61.22;101912.31;5092473;28;20060;-78
2022/03/16 02:28:14;;;;;;;13.98;5.88;;;;;;;-6.56;60.90;101916.63;5092523;28;20048;-78
2022/03/16 02:30:42;;;;;;;12.65;6.25;;;;;;;-6.51;60.62;101920.53;5092378;28;20184;-80
2022/03/16 02:33:09;;;;;;;11.55;5.43;;;;;;;-6.69;60.58;101891.56;5091735;28;20505;-79
2022/03/16 02:35:36;;;;;;;10.57;5.75;;;;;;;-6.72;60.47;101903.94;5092659;28;20170;-81
2022/03/16 02:38:04;;;;;;;13.93;6.43;;;;;;;-6.77;60.71;101916.91;5092567;28;20056;-79
2022/03/16 02:40:31;;;;;;;12.05;5.82;;;;;;;-6.94;61.32;101894.81;5091868;28;20505;-80
2022/03/16 02:42:59;;;;;;;12.43;6.15;;;;;;;-6.89;61.39;101927.59;5093276;28;20503;-79
2022/03/16 02:45:26;;;;;;;15.18;7.30;;;;;;;-6.87;61.56;101917.59;5096238;28;20048;-78
2022/03/16 02:47:53;;;;;;;10.73;6.10;;;;;;;-6.96;61.25;101924.25;5103888;28;20143;-80
2022/03/16 02:50:20;;;;;;;12.20;5.63;;;;;;;-7.17;61.17;101882.22;5109618;28;20048;-79
2022/03/16 02:52:47;;;;;;;12.27;5.90;;;;;;;-6.99;61.56;101929.88;5092979;28;20543;-81
2022/03/16 02:55:35;;;;;;;9.75;5.47;;;;;;;-7.02;61.40;101944.81;5092832;28;20055;-80
2022/03/16 02:58:02;;;;;;;13.13;6.18;;;;;;;-7.01;61.51;101928.84;5092544;28;20068;-80
2022/03/16 03:00:29;;;;;;;9.43;5.57;;;;;;;-7.02;61.77;101934.66;5092542;28;20052;-82
2022/03/16 03:02:56;;;;;;;14.55;6.45;;;;;;;-7.03;61.77;101933.75;5092858;28;20056;-81
2022/03/16 03:05:23;;;;;;;11.15;6.05;;;;;;;-7.04;61.78;101928.50;5094223;28;20056;-78
2022/03/16 03:07:50;;;;;;;14.60;6.32;;;;;;;-7.21;62.03;101921.63;5096515;28;20064;-79
2022/03/16 03:10:17;;;;;;;14.95;6.22;;;;;;;-7.48;62.07;101872.25;5077634;28;20408;-80
2022/03/16 03:12:44;;;;;;;15.00;6.78;;;;;;;-7.50;62.32;101881.31;5096288;28;20148;-81
2022/03/16 03:15:13;;;;;;;11.70;6.25;;;;;;;-7.55;61.97;101869.78;5078278;28;20055;-77
2022/03/16 03:17:41;;;;;;;16.13;6.32;;;;;;;-7.25;62.03;101935.66;5078849;28;20467;-82
2022/03/16 03:20:09;;;;;;;14.27;6.80;;;;;;;-7.49;62.21;101890.72;5076967;28;20484;-83
2022/03/16 03:22:37;;;;;;;16.08;7.13;;;;;;;-7.35;62.05;101919.25;5094954;28;20477;-84
2022/03/16 03:25:05;;;;;;;16.88;6.78;;;;;;;-7.35;62.81;101926.88;5095235;28;20101;-83
2022/03/16 03:27:33;;;;;;;16.38;7.20;;;;;;;-7.50;62.39;101911.78;5077745;28;20156;-83
2022/03/16 03:30:00;;;;;;;19.30;7.22;;;;;;;-7.45;62.72;101937.69;5095493;28;20040;-81
2022/03/16 03:32:29;;;;;;;16.88;7.30;;;;;;;-7.34;62.80;101946.44;5077124;28;20105;-83
2022/03/16 03:34:56;;;;;;;15.40;7.25;;;;;;;-7.20;62.60;101948.84;5094037;28;20443;-82
2022/03/16 03:37:30;;;;;;;18.60;7.30;;;;;;;-7.22;62.36;101941.03;5095127;28;20429;-84
2022/03/16 03:39:58;;;;;;;19.52;8.40;;;;;;;-7.26;62.45;101956.69;5095733;28;20521;-83
2022/03/16 03:42:26;;;;;;;19.67;8.23;;;;;;;-7.37;62.44;101962.25;5074322;28;20143;-83
2022/03/16 03:44:53;;;;;;;14.65;7.10;;;;;;;-7.70;62.56;101913.81;5075468;28;20061;-82
2022/03/16 03:47:20;;;;;;;15.55;8.32;;;;;;;-7.55;63.14;101939.94;5076483;28;20052;-82
2022/03/16 03:49:47;;;;;;;13.15;7.57;;;;;;;-7.53;62.66;101956.25;5077905;28;20048;-82
2022/03/16 03:52:14;;;;;;;18.70;8.73;;;;;;;-7.70;62.70;101931.56;5076350;28;20105;-82
2022/03/16 03:54:41;;;;;;;17.08;8.07;;;;;;;-7.55;63.00;101960.25;5077344;28;20048;-81
2022/03/16 03:57:09;;;;;;;17.02;8.18;;;;;;;-7.46;62.91;101964.72;5077353;28;20470;-80
2022/03/16 03:59:36;;;;;;;18.70;8.73;;;;;;;-7.58;62.61;101937.09;5093534;28;20052;-80
2022/03/16 04:02:03;;;;;;;18.83;9.02;;;;;;;-7.37;62.63;101976.59;5095425;28;20047;-81
2022/03/16 04:04:30;;;;;;;18.05;8.90;;;;;;;-7.35;62.78;101970.94;5064367;28;20044;-82
2022/03/16 04:06:58;;;;;;;20.27;9.40;;;;;;;-7.31;62.26;101972.16;5074221;28;20055;-81
2022/03/16 04:09:26;;;;;;;18.38;9.13;;;;;;;-7.22;62.40;101978.25;5064994;28;20052;-82
2022/03/16 04:11:53;;;;;;;17.52;8.43;;;;;;;-7.31;62.82;101959.47;5041512;28;20052;-82
2022/03/16 04:14:21;;;;;;;20.02;9.20;;;;;;;-7.13;62.62;101981.78;5076713;28;20053;-83
2022/03/16 04:16:48;;;;;;;19.58;9.38;;;;;;;-7.23;62.37;101974.81;5064119;28;20472;-80
2022/03/16 04:19:15;;;;;;;17.95;9.48;;;;;;;-7.10;62.15;101989.72;5104034;28;20048;-80
2022/03/16 04:21:42;;;;;;;19.27;8.57;;;;;;;-7.13;62.08;101975.81;5113377;28;20122;-79
2022/03/16 04:24:09;;;;;;;18.70;9.50;;;;;;;-7.01;62.40;101984.75;5095647;28;20052;-80
2022/03/16 04:26:36;;;;;;;20.67;9.57;;;;;;;-6.93;61.92;102001.69;5094742;28;20063;-79
2022/03/16 04:29:03;;;;;;;17.50;9.25;;;;;;;-7.20;62.00;101920.91;5093657;28;20142;-77
2022/03/16 04:31:30;;;;;;;18.67;9.05;;;;;;;-6.96;62.12;101970.88;5094786;28;20059;-81
2022/03/16 04:33:57;;;;;;;19.38;9.73;;;;;;;-6.70;61.35;101981.25;5094933;28;20052;-81
2022/03/16 04:39:50;;;;;;;20.50;9.18;;;;;;;-6.84;61.54;101920.44;5015579;28;20588;-80
2022/03/16 04:42:17;;;;;;;22.90;9.30;;;;;;;-6.36;61.26;101991.56;5031726;28;20067;-80
2022/03/16 04:44:45;;;;;;;17.35;8.73;;;;;;;-6.58;60.71;101941.00;5031653;28;20072;-80
2022/03/16 04:47:12;;;;;;;21.55;10.20;;;;;;;-6.51;60.43;101920.53;5031709;28;20085;-80
2022/03/16 04:49:38;;;;;;;21.92;10.20;;;;;;;-6.18;60.68;101965.47;5031523;28;20091;-80
2022/03/16 04:52:06;;;;;;;18.73;9.95;;;;;;;-6.00;60.41;101995.38;5031769;28;20064;-79
2022/03/16 04:54:33;;;;;;;22.48;10.07;;;;;;;-5.93;60.26;101990.88;5031753;28;20538;-79
2022/03/16 04:57:00;;;;;;;25.40;11.35;;;;;;;-5.89;59.81;101987.88;5031591;28;20576;-79
2022/03/16 04:59:27;;;;;;;20.20;9.88;;;;;;;-5.93;59.42;101947.63;5014963;28;20530;-82
2022/03/16 05:01:55;;;;;;;24.20;10.07;;;;;;;-5.61;59.18;102000.16;5034098;28;20080;-80
2022/03/16 05:04:22;;;;;;;24.45;10.73;;;;;;;-5.95;59.00;101906.78;5001336;28;20045;-80
2022/03/16 05:06:49;;;;;;;22.20;10.07;;;;;;;-5.92;58.81;101899.41;5039666;28;20137;-79
2022/03/16 05:09:16;;;;;;;21.60;10.20;;;;;;;-5.42;58.52;101961.25;5037276;28;20061;-78
2022/03/16 05:11:45;;;;;;;23.45;10.13;;;;;;;-5.07;58.37;101986.84;5037065;28;20060;-79
2022/03/16 05:14:12;;;;;;;23.17;10.40;;;;;;;-5.32;57.68;101932.53;5000091;28;20061;-80
2022/03/16 05:16:40;;;;;;;21.15;10.10;;;;;;;-5.01;57.62;101974.69;5060381;28;20301;-78
2022/03/16 05:19:07;;;;;;;22.13;9.63;;;;;;;-4.64;57.47;101989.44;5097976;28;20055;-80
2022/03/16 05:21:34;;;;;;;24.23;10.55;;;;;;;-4.43;56.74;101990.63;5093584;28;20505;-78
2022/03/16 05:24:01;;;;;;;20.98;10.43;;;;;;;-4.27;56.38;101993.00;5093256;28;20054;-78
2022/03/16 05:26:40;;;;;;;26.33;10.82;;;;;;;-3.93;56.12;101989.47;5093777;28;20044;-81
2022/03/16 05:29:08;;;;;;;20.42;10.57;;;;;;;-3.62;55.43;101978.69;5067200;28;20117;-79
2022/03/16 05:31:35;;;;;;;20.70;9.93;;;;;;;-3.42;55.08;101985.66;5073524;28;20075;-78
2022/03/16 05:34:02;;;;;;;19.65;10.10;;;;;;;-3.26;54.57;101993.09;5074465;28;20139;-79
2022/03/16 05:36:29;;;;;;;17.42;8.70;;;;;;;-3.44;54.47;101966.72;5074971;28;20107;-79
2022/03/16 05:39:01;;;;;;;20.88;9.20;;;;;;;-3.57;54.56;101975.81;5097414;28;20074;-81
2022/03/16 05:41:28;;;;;;;15.90;9.48;;;;;;;-3.53;54.79;101992.31;5075638;28;20101;-79
2022/03/16 05:43:55;;;;;;;17.35;9.02;;;;;;;-3.42;54.66;102004.47;5093549;28;20055;-78
2022/03/16 05:46:22;;;;;;;18.52;8.45;;;;;;;-3.38;54.54;102005.63;5093772;28;20146;-79
2022/03/16 05:48:49;;;;;;;21.02;9.27;;;;;;;-3.60;54.50;101954.19;5093552;28;20105;-79
2022/03/16 05:51:16;;;;;;;17.48;9.18;;;;;;;-3.33;54.34;101992.53;5093643;28;20048;-79
2022/03/16 05:53:43;;;;;;;17.13;9.05;;;;;;;-3.46;54.08;101943.59;5092828;28;20513;-78
2022/03/16 05:56:10;;;;;;;19.20;9.23;;;;;;;-3.10;53.99;102004.91;5094212;28;20044;-80
2022/03/16 05:58:37;;;;;;;19.58;8.93;;;;;;;-3.25;53.73;101947.22;5093808;28;20147;-80
2022/03/16 06:01:04;;;;;;;15.13;7.95;;;;;;;-2.94;53.33;102007.19;5093809;28;20051;-78
2022/03/16 06:03:31;;;;;;;20.55;8.98;;;;;;;-3.00;53.77;102005.75;5093568;28;20125;-81
2022/03/16 06:05:58;;;;;;;19.20;8.73;;;;;;;-3.28;53.28;101946.94;5092330;28;20539;-81
2022/03/16 06:08:25;;;;;;;15.98;7.75;;;;;;;-3.17;53.05;101959.06;5093823;28;20051;-82
2022/03/16 06:10:52;;;;;;;16.95;8.75;;;;;;;-2.98;53.28;101976.09;5091478;28;20113;-81
2022/03/16 06:13:20;;;;;;;17.70;8.90;;;;;;;-2.73;53.13;102021.06;5084492;28;20044;-82
2022/03/16 06:15:49;;;;;;;18.02;9.05;;;;;;;-2.73;52.86;102015.94;5093837;28;20078;-82
2022/03/16 06:18:15;;;;;;;18.73;8.63;;;;;;;-2.69;52.71;102012.91;5078339;28;20414;-82
2022/03/16 06:20:42;;;;;;;15.65;8.57;;;;;;;-2.75;52.73;102009.78;5073951;28;20519;-77
2022/03/16 06:23:09;;;;;;;14.80;7.82;;;;;;;-2.79;53.03;102030.72;5073499;28;20059;-81
2022/03/16 06:25:39;;;;;;;14.47;7.57;;;;;;;-2.99;52.78;101984.50;5073348;28;20482;-81
2022/03/16 06:28:06;;;;;;;19.98;9.18;;;;;;;-2.86;52.83;101996.75;5073413;28;20283;-79
2022/03/16 06:30:33;;;;;;;14.02;7.30;;;;;;;-2.58;52.62;102030.84;5072729;28;20095;-82
2022/03/16 06:33:00;;;;;;;15.07;7.13;;;;;;;-2.59;52.59;102001.81;5073401;28;20087;-81
2022/03/16 06:35:27;;;;;;;15.60;6.97;;;;;;;-2.42;52.43;102022.91;5073067;28;20075;-80
2022/03/16 06:37:54;;;;;;;14.40;7.10;;;;;;;-2.33;51.77;101973.44;5073727;28;20059;-81
2022/03/16 06:40:21;;;;;;;19.27;8.52;;;;;;;-1.77;51.47;102034.63;5074776;28;20049;-81
2022/03/16 06:42:53;;;;;;;15.82;7.20;;;;;;;-1.83;51.15;102014.50;5075786;28;20148;-81
2022/03/16 06:45:22;;;;;;;12.70;6.70;;;;;;;-1.92;51.14;102019.72;5077084;28;20139;-80
2022/03/16 06:47:49;;;;;;;12.43;6.53;;;;;;;-1.97;51.41;102020.09;5076856;28;20048;-79
2022/03/16 06:50:18;;;;;;;16.08;7.03;;;;;;;-1.95;51.03;102019.44;5078737;28;20052;-78
2022/03/16 06:52:45;;;;;;;15.13;6.50;;;;;;;-1.94;50.69;102028.91;5087471;28;20021;-79
2022/03/16 06:55:12;;;;;;;15.00;6.30;;;;;;;-2.00;50.22;101997.69;5100157;28;20028;-78
2022/03/16 06:57:39;;;;;;;13.20;5.75;;;;;;;-1.72;50.10;102018.00;5088655;28;20450;-81
2022/03/16 07:00:09;;;;;;;14.52;6.55;;;;;;;-1.74;49.58;102027.22;5077164;28;20568;-81
2022/03/16 07:02:58;;;;;;;22.88;8.85;;;;;;;-1.54;49.52;102028.97;5077570;28;20055;-80
2022/03/16 07:05:40;;;;;;;25.23;9.15;;;;;;;-1.56;49.03;102036.50;5075522;28;20106;-81
2022/03/16 07:08:09;;;;;;;16.65;6.65;;;;;;;-1.46;48.88;102045.91;5075219;28;20413;-78
2022/03/16 07:10:40;;;;;;;14.63;6.90;;;;;;;-1.33;48.63;102037.59;5075909;28;20052;-78
2022/03/16 07:13:11;;;;;;;16.20;6.60;;;;;;;-1.46;48.23;102028.84;5075983;28;20417;-82
2022/03/16 07:15:39;;;;;;;15.90;6.43;;;;;;;-1.45;48.03;102035.75;5076605;28;20449;-79
2022/03/16 07:18:07;;;;;;;17.33;7.97;;;;;;;-1.32;48.32;102040.28;5083083;28;20059;-81
2022/03/16 07:20:34;;;;;;;11.98;6.15;;;;;;;-1.54;47.13;102003.31;5076976;28;20060;-80
2022/03/16 07:23:16;;;;;;;13.60;7.35;;;;;;;-1.40;47.17;102038.72;5074554;28;20532;-77
2022/03/16 07:25:46;;;;;;;17.90;7.90;;;;;;;-1.51;47.21;102019.84;5076898;28;20147;-80
2022/03/16 07:28:14;;;;;;;14.13;7.38;;;;;;;-1.43;46.75;102023.09;5079080;28;20456;-80
2022/03/16 07:30:42;;;;;;;15.07;6.60;;;;;;;-1.54;46.57;101985.38;5077574;28;20044;-80
2022/03/16 07:33:13;;;;;;;13.40;6.55;;;;;;;-1.27;46.49;102027.84;5077504;28;20059;-80
2022/03/16 07:35:40;;;;;;;12.48;5.93;;;;;;;-1.29;46.54;102034.50;5076634;28;20049;-80
2022/03/16 07:38:08;;;;;;;12.40;5.97;;;;;;;-1.25;46.54;102036.56;5075344;28;20053;-81
2022/03/16 07:40:36;;;;;;;11.27;5.20;;;;;;;-1.39;45.54;102040.53;5075411;28;20048;-78
2022/03/16 07:43:04;;;;;;;10.57;5.28;;;;;;;-1.65;45.85;102039.16;5057853;28;20407;-79
2022/03/16 07:45:32;;;;;;;15.30;6.85;;;;;;;-1.76;45.98;102023.63;5061509;28;20080;-79
2022/03/16 07:47:59;;;;;;;10.88;5.97;;;;;;;-1.69;46.08;102031.97;5078811;28;20044;-78
2022/03/16 07:50:27;;;;;;;15.13;6.65;;;;;;;-1.84;46.31;102007.59;5077822;28;20056;-80
2022/03/16 07:52:54;;;;;;;7.10;4.60;;;;;;;-1.73;46.00;102023.91;5078291;28;20082;-79
2022/03/16 07:55:21;;;;;;;13.52;6.32;;;;;;;-1.83;46.12;102029.88;5075193;28;20513;-79
2022/03/16 07:57:49;;;;;;;9.27;5.28;;;;;;;-1.94;46.07;102043.41;5075576;28;20056;-80
2022/03/16 08:00:17;;;;;;;17.65;7.75;;;;;;;-1.97;46.17;102015.84;5075659;28;20074;-79
2022/03/16 08:02:44;;;;;;;13.55;7.07;;;;;;;-1.78;46.06;102020.94;5074733;28;20083;-80
2022/03/16 08:05:13;;;;;;;15.27;6.72;;;;;;;-1.66;45.96;102010.84;5073829;28;20063;-80
2022/03/16 08:07:40;;;;;;;15.90;7.75;;;;;;;-1.77;46.03;102002.22;5074731;28;20117;-78
2022/03/16 08:10:08;;;;;;;10.48;5.82;;;;;;;-1.55;45.96;102045.09;5077347;28;20071;-80
2022/03/16 08:12:37;;;;;;;10.95;6.55;;;;;;;-1.54;46.03;102044.34;5079009;28;20049;-80
2022/03/16 08:15:05;;;;;;;11.65;6.22;;;;;;;-1.77;45.86;102029.50;5078219;28;20585;-78
2022/03/16 08:17:32;;;;;;;15.57;6.78;;;;;;;-1.71;46.03;102020.69;5076314;28;20053;-80
2022/03/16 08:19:59;;;;;;;11.07;6.03;;;;;;;-1.79;45.91;102016.56;5077263;28;20085;-80
2022/03/16 08:22:34;;;;;;;6.93;4.47;;;;;;;-1.75;46.00;102045.91;5075656;28;20055;-80
2022/03/16 08:25:05;;;;;;;10.30;6.40;;;;;;;-2.03;46.19;101979.47;5075212;28;20048;-81
2022/03/16 08:27:32;;;;;;;11.63;5.72;;;;;;;-1.93;46.15;102043.53;5073352;28;20420;-79
2022/03/16 08:29:59;;;;;;;9.05;5.53;;;;;;;-2.03;46.34;102037.47;5074264;28;20056;-79
2022/03/16 08:32:26;;;;;;;16.35;6.13;;;;;;;-1.96;46.21;102014.19;5074461;28;20052;-82
2022/03/16 08:34:53;;;;;;;10.15;5.18;;;;;;;-2.05;45.92;102004.03;5072903;28;20052;-80
2022/03/16 08:37:20;;;;;;;13.27;6.50;;;;;;;-1.91;46.30;102023.19;5075104;28;20060;-82
2022/03/16 08:39:48;;;;;;;7.88;4.38;;;;;;;-1.77;45.48;102044.88;5074486;28;20063;-81
2022/03/16 08:42:16;;;;;;;10.20;5.10;;;;;;;-1.97;45.81;102046.59;5074360;28;20072;-82
2022/03/16 08:44:45;;;;;;;12.93;5.78;;;;;;;-2.11;46.31;102035.16;5073730;28;20048;-79
2022/03/16 08:47:20;;;;;;;11.70;6.05;;;;;;;-2.00;46.41;102015.59;5074087;28;20090;-79
2022/03/16 08:49:51;;;;;;;9.82;5.40;;;;;;;-2.12;45.56;101983.78;5073758;28;20060;-81
2022/03/16 08:52:19;;;;;;;7.40;4.03;;;;;;;-2.16;45.59;101990.28;5074412;28;20076;-80
2022/03/16 08:54:46;;;;;;;12.05;5.05;;;;;;;-2.12;45.61;101986.34;5073332;28;20079;-81
2022/03/16 08:57:14;;;;;;;9.00;4.97;;;;;;;-1.81;45.31;102023.22;5072617;28;20135;-77
2022/03/16 08:59:41;;;;;;;10.70;5.03;;;;;;;-1.76;45.45;102009.16;5073595;28;20071;-81
2022/03/16 09:02:09;;;;;;;9.18;4.85;;;;;;;-1.57;45.34;102034.72;5078248;28;20135;-84
2022/03/16 09:04:36;;;;;;;12.13;5.72;;;;;;;-1.58;44.84;101997.03;5082958;28;20108;-83
2022/03/16 09:07:04;;;;;;;9.93;5.63;;;;;;;-1.51;45.31;102011.25;5093108;28;20062;-83
2022/03/16 09:09:39;;;;;;;7.93;4.78;;;;;;;-1.69;44.59;101987.53;5083911;28;20052;-80
2022/03/16 09:12:08;;;;;;;9.85;5.05;;;;;;;-1.66;44.77;102004.06;5086236;28;20497;-81
2022/03/16 09:14:35;;;;;;;10.05;5.53;;;;;;;-1.52;44.29;102012.94;5088184;28;20063;-80
2022/03/16 09:17:02;;;;;;;6.80;4.18;;;;;;;-1.42;44.09;102042.81;5087038;28;20060;-79
2022/03/16 09:19:30;;;;;;;8.95;4.63;;;;;;;-1.43;44.25;102029.88;5061364;28;20061;-81
2022/03/16 09:22:00;;;;;;;9.43;5.10;;;;;;;-1.42;43.82;102031.66;5074383;28;20067;-81
2022/03/16 09:24:27;;;;;;;8.32;4.53;;;;;;;-1.60;43.86;102023.28;5077797;28;20425;-78
2022/03/16 09:26:59;;;;;;;9.80;5.18;;;;;;;-1.59;43.94;102017.38;5089605;28;20055;-80
2022/03/16 09:29:28;;;;;;;10.10;4.35;;;;;;;-1.71;44.11;102013.00;5107603;28;20048;-79
2022/03/16 09:32:04;;;;;;;10.55;4.93;;;;;;;-1.69;44.58;102018.28;5098836;28;20074;-80
2022/03/16 09:34:31;;;;;;;9.60;4.70;;;;;;;-1.69;44.21;102056.72;5075964;28;20052;-79
2022/03/16 09:36:59;;;;;;;10.07;5.40;;;;;;;-1.56;44.71;102023.69;5078990;28;20048;-78
2022/03/16 09:39:27;;;;;;;10.85;5.60;;;;;;;-1.45;44.22;102005.00;5087608;28;20051;-78
2022/03/16 09:41:56;;;;;;;13.52;5.75;;;;;;;-1.26;43.89;102027.97;5085866;28;20052;-80
2022/03/16 09:44:24;;;;;;;12.27;5.45;;;;;;;-1.43;43.84;101987.19;5093259;28;20109;-79
2022/03/16 09:46:54;;;;;;;7.68;4.82;;;;;;;-1.55;43.57;101976.81;5093138;28;20048;-79
2022/03/16 09:49:22;;;;;;;9.75;4.70;;;;;;;-1.12;43.26;102046.22;5094033;28;20051;-81
2022/03/16 09:51:50;;;;;;;11.23;5.10;;;;;;;-1.07;43.13;101988.50;5093333;28;20044;-80
2022/03/16 09:54:17;;;;;;;7.63;4.75;;;;;;;-0.79;41.86;102019.06;5093437;28;20067;-80
2022/03/16 09:56:44;;;;;;;10.02;4.90;;;;;;;-0.79;42.04;102013.91;5092987;28;20121;-79
2022/03/16 09:59:11;;;;;;;8.73;5.63;;;;;;;-0.43;42.06;102008.31;5092672;28;20048;-80
2022/03/16 10:01:39;;;;;;;9.05;5.28;;;;;;;-0.15;41.21;102019.19;5093142;28;20154;-80
2022/03/16 10:04:06;;;;;;;9.23;4.93;;;;;;;-0.38;41.62;102001.03;5092218;28;20488;-78
2022/03/16 10:06:38;;;;;;;7.10;3.90;;;;;;;-0.34;40.75;102003.06;5093136;28;20059;-79
2022/03/16 10:15:04;;;;;;;11.80;5.05;;;;;;;0.57;39.84;101995.72;5095095;28;20052;-80
2022/03/16 10:17:43;;;;;;;6.63;4.00;;;;;;;0.61;39.73;102000.31;5094926;28;20485;-82
2022/03/16 10:20:20;;;;;;;9.00;4.37;;;;;;;0.64;39.48;101997.97;5096545;28;20055;-80
2022/03/16 10:23:04;;;;;;;11.23;5.70;;;;;;;0.50;39.33;101975.47;5095587;28;20147;-80
2022/03/16 10:25:37;;;;;;;11.55;5.47;;;;;;;0.63;39.21;101962.75;5096842;28;20502;-80
2022/03/16 10:28:19;;;;;;;8.07;4.13;;;;;;;0.82;39.16;101981.38;5096640;28;20052;-80
2022/03/16 10:31:07;;;;;;;7.97;4.70;;;;;;;0.77;39.37;101986.94;5096747;28;20397;-81
2022/03/16 10:33:51;;;;;;;8.13;4.95;;;;;;;0.73;39.22;101993.56;5095645;28;20044;-80
2022/03/16 10:36:21;;;;;;;10.82;4.35;;;;;;;0.33;39.10;101987.00;5095535;28;20071;-80
2022/03/16 10:39:01;;;;;;;8.82;4.65;;;;;;;0.32;39.41;101978.38;5095625;28;20138;-80
2022/03/16 10:47:15;;;;;;;9.00;4.55;;;;;;;0.30;39.43;101999.59;5097099;28;20056;-80
2022/03/16 10:49:44;;;;;;;10.13;4.28;;;;;;;0.20;39.04;101964.56;5096613;28;20048;-79
2022/03/16 10:52:19;;;;;;;9.73;4.28;;;;;;;0.42;38.70;101977.41;5096265;28;20059;-80
2022/03/16 10:54:50;;;;;;;6.00;3.00;;;;;;;0.39;38.02;101977.19;5096478;28;20055;-80
2022/03/16 10:57:19;;;;;;;5.65;3.58;;;;;;;0.14;37.81;101962.41;5096668;28;20055;-80
2022/03/16 10:59:48;;;;;;;4.85;3.17;;;;;;;0.17;37.20;101972.03;5096411;28;20044;-79
2022/03/16 11:02:17;;;;;;;;;;;;;;;-0.02;38.33;101975.72;5101253;28;20138;-81
2022/03/16 11:04:47;;;;;;;7.20;3.30;;;;;;;0.23;37.33;101971.63;5097072;28;19935;-78
2022/03/16 11:07:15;;;;;;;7.63;3.97;;;;;;;0.17;37.31;101964.31;5095504;28;20113;-80
2022/03/16 11:09:42;;;;;;;7.07;3.35;;;;;;;0.08;36.99;101949.06;5098922;28;20048;-79
2022/03/16 11:15:01;;;;;;;6.25;3.60;;;;;;;0.15;37.03;101969.34;5114219;28;20055;-80
2022/03/16 11:17:30;;;;;;;6.53;3.45;;;;;;;0.28;36.75;101972.84;5101672;28;20113;-80
2022/03/16 11:20:00;;;;;;;4.53;3.10;;;;;;;0.38;37.11;101994.28;5096184;28;20060;-80
2022/03/16 11:25:49;;;;;;;6.25;3.40;;;;;;;0.25;37.07;101962.34;5083702;28;20067;-79
2022/03/16 11:28:28;;;;;;;7.25;3.78;;;;;;;0.28;37.11;101984.06;5095671;28;20075;-79
2022/03/16 11:30:59;;;;;;;5.93;3.30;;;;;;;0.16;36.88;101954.81;5094784;28;20083;-81
2022/03/16 11:33:26;;;;;;;6.00;3.38;;;;;;;0.16;37.35;101950.56;5095665;28;20044;-81
2022/03/16 11:35:55;;;;;;;5.90;3.83;;;;;;;0.36;36.78;101990.69;5095388;28;20056;-80
2022/03/16 11:38:22;;;;;;;5.40;3.28;;;;;;;0.19;36.68;101998.75;5094189;28;20445;-79
2022/03/16 11:40:50;;;;;;;6.63;3.47;;;;;;;-0.02;36.73;101974.84;5095083;28;20048;-80
2022/03/16 11:43:22;;;;;;;4.57;3.17;;;;;;;-0.17;36.78;101946.25;5095522;28;20098;-80
2022/03/16 11:45:54;;;;;;;6.95;3.85;;;;;;;0.07;36.46;101965.28;5095375;28;20048;-80